createdAt,value
2023-04-25T00:01:24.038Z,73.69
2023-04-25T00:06:30.915Z,74.29
2023-04-25T00:11:36.455Z,74.70
2023-04-25T00:16:42.232Z,75.27
2023-04-25T00:21:48.031Z,75.90
2023-04-25T00:26:54.001Z,76.61
2023-04-25T00:31:59.688Z,77.21
2023-04-25T00:37:05.835Z,77.79
2023-04-25T00:42:11.986Z,78.55
2023-04-25T00:47:20.490Z,79.32
2023-04-25T00:52:26.318Z,79.94
2023-04-25T00:57:31.824Z,80.45
2023-04-25T01:02:38.826Z,80.44
2023-04-25T01:07:44.432Z,80.43
2023-04-25T01:12:50.156Z,80.90
2023-04-25T01:17:56.525Z,81.78
2023-04-25T01:23:04.086Z,82.74
2023-04-25T01:28:10.201Z,83.61
2023-04-25T01:33:16.533Z,84.35
2023-04-25T01:38:22.729Z,85.00
2023-04-25T01:43:28.297Z,85.45
2023-04-25T01:48:33.707Z,86.36
2023-04-25T01:53:39.301Z,87.39
2023-04-25T01:58:45.562Z,88.27
2023-04-25T02:04:00.539Z,89.10
2023-04-25T02:09:12.295Z,89.87
2023-04-25T02:14:22.720Z,90.97
2023-04-25T02:19:40.995Z,91.63
2023-04-25T02:24:46.744Z,92.14
2023-04-25T02:29:52.237Z,93.07
2023-04-25T02:34:59.758Z,93.46
2023-04-25T02:40:08.241Z,94.38
2023-04-25T02:45:13.906Z,94.74
2023-04-25T02:50:19.642Z,94.99
2023-04-25T02:55:27.810Z,95.19
2023-04-25T03:00:34.178Z,95.33
2023-04-25T03:05:41.248Z,95.48
2023-04-25T03:10:46.992Z,95.95
2023-04-25T03:15:53.553Z,96.33
2023-04-25T03:20:59.165Z,96.48
2023-04-25T03:26:05.198Z,96.53
2023-04-25T03:31:11.076Z,96.40
2023-04-25T03:36:16.497Z,96.53
2023-04-25T03:41:22.141Z,96.78
2023-04-25T03:46:39.172Z,96.59
2023-04-25T03:51:44.996Z,96.53
2023-04-25T03:56:50.460Z,96.25
2023-04-25T04:01:58.680Z,95.77
2023-04-25T04:07:05.231Z,95.46
2023-04-25T04:12:14.504Z,95.04
2023-04-25T04:17:20.769Z,95.00
2023-04-25T04:22:26.700Z,94.93
2023-04-25T04:27:35.769Z,94.51
2023-04-25T04:33:03.594Z,94.02
2023-04-25T04:38:09.715Z,93.98
2023-04-25T04:43:18.527Z,93.44
2023-04-25T04:48:35.154Z,93.29
2023-04-25T04:54:03.228Z,93.11
2023-04-25T04:59:33.080Z,92.64
2023-04-25T05:05:15.181Z,91.91
2023-04-25T05:10:54.479Z,90.79
2023-04-25T05:16:37.406Z,89.60
2023-04-25T05:21:56.679Z,89.39
2023-04-25T05:27:14.428Z,89.00
2023-04-25T05:32:47.942Z,88.93
2023-04-25T05:37:54.328Z,89.08
2023-04-25T05:43:11.063Z,89.45
2023-04-25T05:48:42.524Z,89.48
2023-04-25T05:54:08.698Z,89.64
2023-04-25T05:59:14.815Z,89.92
2023-04-25T06:04:20.524Z,90.78
2023-04-25T06:09:26.527Z,90.82
2023-04-25T06:14:33.343Z,90.88
2023-04-25T06:19:38.851Z,90.23
2023-04-25T06:24:44.387Z,89.72
2023-04-25T06:29:51.393Z,89.26
2023-04-25T06:35:01.443Z,88.63
2023-04-25T06:40:09.279Z,88.42
2023-04-25T06:45:14.993Z,88.98
2023-04-25T06:50:20.772Z,89.35
2023-04-25T06:55:26.360Z,90.63
2023-04-25T07:00:42.909Z,91.77
2023-04-25T07:05:48.614Z,92.56
2023-04-25T07:10:54.214Z,93.55
2023-04-25T07:16:00.073Z,95.09
2023-04-25T07:21:06.954Z,95.51
2023-04-25T07:26:13.302Z,94.23
2023-04-25T07:31:29.349Z,90.21
2023-04-25T07:36:34.992Z,87.14
2023-04-25T07:41:40.642Z,85.80
2023-04-25T07:46:47.472Z,85.87
2023-04-25T07:51:53.372Z,85.09
2023-04-25T07:56:59.587Z,85.33
2023-04-25T08:02:07.824Z,85.30
2023-04-25T08:07:13.967Z,86.38
2023-04-25T08:12:28.479Z,86.46
2023-04-25T08:17:35.673Z,85.19
2023-04-25T08:22:41.384Z,85.03
2023-04-25T08:28:04.143Z,84.78
2023-04-25T08:33:12.416Z,84.41
2023-04-25T08:38:37.607Z,84.78
2023-04-25T08:43:45.878Z,83.31
2023-04-25T08:48:55.572Z,81.34
2023-04-25T08:54:30.906Z,80.89
2023-04-25T08:59:40.545Z,81.18
2023-04-25T09:04:46.812Z,80.48
2023-04-25T09:09:53.471Z,80.05
2023-04-25T09:15:12.391Z,80.51
2023-04-25T09:21:01.792Z,81.22
2023-04-25T09:26:10.582Z,80.34
2023-04-25T09:31:26.264Z,79.94
2023-04-25T09:36:36.959Z,80.86
2023-04-25T09:42:18.680Z,81.86
2023-04-25T09:47:28.012Z,82.15
2023-04-25T09:52:34.047Z,82.90
2023-04-25T09:57:53.298Z,84.10
2023-04-25T10:03:02.098Z,84.46
2023-04-25T10:08:29.340Z,85.54
2023-04-25T10:13:36.871Z,86.34
2023-04-25T10:18:42.539Z,86.93
2023-04-25T10:23:50.104Z,86.70
2023-04-25T10:28:59.918Z,87.35
2023-04-25T10:34:06.409Z,87.88
2023-04-25T10:39:11.849Z,87.83
2023-04-25T10:44:17.566Z,87.02
2023-04-25T10:49:34.260Z,87.01
2023-04-25T10:54:47.287Z,87.57
2023-04-25T10:59:52.779Z,87.76
2023-04-25T11:04:58.713Z,86.94
2023-04-25T11:10:12.070Z,86.19
2023-04-25T11:15:17.689Z,86.05
2023-04-25T11:20:26.930Z,84.87
2023-04-25T11:25:41.218Z,84.06
2023-04-25T11:30:51.731Z,82.89
2023-04-25T11:35:57.569Z,81.30
2023-04-25T11:41:03.355Z,81.84
2023-04-25T11:46:14.036Z,80.39
2023-04-25T11:51:19.616Z,79.89
2023-04-25T11:56:25.150Z,77.68
2023-04-25T12:01:37.302Z,77.70
2023-04-25T12:06:48.902Z,77.79
2023-04-25T12:11:57.466Z,78.47
2023-04-25T12:17:09.130Z,78.43
2023-04-25T12:22:29.466Z,76.19
2023-04-25T12:27:35.134Z,75.61
2023-04-25T12:32:40.706Z,75.54
2023-04-25T12:37:46.861Z,73.76
2023-04-25T12:42:52.446Z,74.09
2023-04-25T12:47:58.619Z,74.07
2023-04-25T12:53:05.008Z,73.39
2023-04-25T12:58:10.563Z,73.84
2023-04-25T13:03:17.663Z,73.83
2023-04-25T13:08:23.553Z,73.28
2023-04-25T13:13:29.713Z,73.45
2023-04-25T13:18:35.610Z,73.43
2023-04-25T13:23:42.833Z,73.14
2023-04-25T13:28:48.583Z,72.68
2023-04-25T13:33:54.178Z,73.35
2023-04-25T13:38:59.899Z,73.40
2023-04-25T13:44:05.451Z,72.23
2023-04-25T13:49:13.227Z,72.40
2023-04-25T13:54:19.304Z,71.51
2023-04-25T13:59:24.906Z,71.33
2023-04-25T14:04:31.016Z,71.98
2023-04-25T14:09:36.897Z,73.12
2023-04-25T14:14:42.288Z,74.29
2023-04-25T14:19:49.155Z,74.13
2023-04-25T14:24:54.679Z,74.91
2023-04-25T14:30:00.202Z,75.39
2023-04-25T14:35:09.057Z,76.57
2023-04-25T14:40:16.774Z,77.07
2023-04-25T14:45:22.684Z,77.59
2023-04-25T14:50:28.348Z,78.26
2023-04-25T14:55:34.050Z,79.04
2023-04-25T15:00:40.169Z,79.75
2023-04-25T15:05:45.999Z,80.24
2023-04-25T15:10:52.028Z,81.44
2023-04-25T15:15:57.547Z,81.33
2023-04-25T15:21:03.243Z,80.74
2023-04-25T15:26:08.871Z,81.78
2023-04-25T15:31:14.262Z,82.20
2023-04-25T15:36:21.722Z,82.68
2023-04-25T15:41:27.414Z,83.70
2023-04-25T15:46:33.192Z,85.16
2023-04-25T15:51:39.045Z,86.58
2023-04-25T15:56:45.899Z,87.83
2023-04-25T16:01:52.693Z,87.98
2023-04-25T16:06:58.258Z,88.86
2023-04-25T16:12:04.712Z,89.68
2023-04-25T16:17:10.353Z,89.93
2023-04-25T16:22:16.710Z,89.45
2023-04-25T16:27:22.351Z,89.40
2023-04-25T16:32:28.883Z,89.89
2023-04-25T16:37:34.662Z,89.72
2023-04-25T16:42:40.152Z,89.71
2023-04-25T16:47:46.182Z,89.66
2023-04-25T16:52:51.923Z,90.38
2023-04-25T16:57:57.658Z,90.93
2023-04-25T17:03:03.248Z,91.04
2023-04-25T17:08:09.346Z,91.68
2023-04-25T17:13:14.996Z,92.86
2023-04-25T17:18:24.025Z,93.39
2023-04-25T17:23:32.687Z,93.95
2023-04-25T17:28:38.217Z,94.68
2023-04-25T17:33:43.849Z,94.92
2023-04-25T17:38:49.513Z,95.36
2023-04-25T17:43:55.159Z,95.94
2023-04-25T17:49:01.329Z,96.77
2023-04-25T17:54:08.248Z,97.41
2023-04-25T17:59:14.106Z,97.89
2023-04-25T18:04:20.305Z,98.18
2023-04-25T18:09:26.789Z,98.01
2023-04-25T18:14:34.284Z,98.30
2023-04-25T18:19:40.048Z,98.06
2023-04-25T18:24:46.403Z,98.72
2023-04-25T18:29:53.428Z,99.30
2023-04-25T18:34:58.996Z,99.94
2023-04-25T18:40:07.155Z,100.00
2023-04-25T18:45:13.619Z,100.00
2023-04-25T18:50:20.633Z,100.00
2023-04-25T18:55:26.408Z,100.00
2023-04-25T19:00:32.583Z,100.00
2023-04-25T19:05:38.182Z,100.00
2023-04-25T19:10:43.895Z,100.00
2023-04-25T19:15:49.638Z,100.00
2023-04-25T19:20:55.229Z,100.00
2023-04-25T19:26:00.799Z,100.00
2023-04-25T19:31:07.415Z,100.00
2023-04-25T19:36:14.396Z,100.00
2023-04-25T19:41:20.860Z,100.00
2023-04-25T19:46:26.495Z,100.00
2023-04-25T19:51:32.204Z,100.00
2023-04-25T19:56:37.872Z,100.00
2023-04-25T20:01:44.678Z,100.00
2023-04-25T20:06:51.022Z,100.00
2023-04-25T20:11:56.426Z,100.00
2023-04-25T20:17:01.862Z,100.00
2023-04-25T20:22:07.322Z,100.00
2023-04-25T20:27:12.659Z,100.00
2023-04-25T20:32:17.920Z,100.00
2023-04-25T20:37:23.451Z,100.00
2023-04-25T20:42:28.963Z,100.00
2023-04-25T20:47:34.564Z,100.00
2023-04-25T20:52:40.313Z,100.00
2023-04-25T20:57:46.151Z,100.00
2023-04-25T21:02:52.831Z,100.00
2023-04-25T21:07:59.018Z,100.00
2023-04-25T21:13:05.278Z,100.00
2023-04-25T21:18:11.084Z,100.00
2023-04-25T21:23:16.953Z,100.00
2023-04-25T21:28:23.344Z,100.00
2023-04-25T21:33:28.794Z,100.00
2023-04-25T21:38:34.792Z,100.00
2023-04-25T21:43:41.287Z,100.00
2023-04-25T21:48:46.608Z,100.00
2023-04-25T21:53:52.090Z,100.00
2023-04-25T21:58:57.413Z,100.00
2023-04-25T22:04:03.035Z,100.00
2023-04-25T22:09:08.792Z,100.00
2023-04-25T22:14:14.742Z,100.00
2023-04-25T22:19:20.112Z,100.00
2023-04-25T22:24:29.752Z,100.00
2023-04-25T22:29:35.369Z,100.00
2023-04-25T22:34:42.291Z,100.00
2023-04-25T22:39:47.663Z,100.00
2023-04-25T22:44:53.866Z,100.00
2023-04-25T22:50:00.375Z,100.00
2023-04-25T22:55:06.942Z,100.00
2023-04-25T23:00:19.161Z,100.00
2023-04-25T23:05:24.830Z,100.00
2023-04-25T23:10:30.794Z,100.00
2023-04-25T23:15:36.848Z,100.00
2023-04-25T23:20:42.856Z,100.00
2023-04-25T23:25:48.942Z,100.00
2023-04-25T23:30:54.329Z,100.00
2023-04-25T23:36:00.317Z,100.00
2023-04-25T23:41:05.742Z,100.00
2023-04-25T23:46:12.596Z,100.00
2023-04-25T23:51:18.054Z,100.00
2023-04-25T23:56:24.581Z,100.00
